createdAt,value
2017-08-04T00:00:53.568Z,37.26
2017-08-04T00:01:53.565Z,37.46
2017-08-04T00:02:53.556Z,37.46
2017-08-04T00:03:53.553Z,37.36
2017-08-04T00:04:53.558Z,37.34
2017-08-04T00:05:53.538Z,36.98
2017-08-04T00:06:53.533Z,36.79
2017-08-04T00:07:53.534Z,36.31
2017-08-04T00:08:53.524Z,36.31
2017-08-04T00:09:53.526Z,36.31
2017-08-04T00:10:53.521Z,36.31
2017-08-04T00:11:53.517Z,36.12
2017-08-04T00:12:53.505Z,36.31
2017-08-04T00:13:53.495Z,36.31
2017-08-04T00:14:53.499Z,36.5
2017-08-04T00:15:53.497Z,36.79
2017-08-04T00:16:53.488Z,36.19
2017-08-04T00:17:53.485Z,36.19
2017-08-04T00:18:53.485Z,36.1
2017-08-04T00:19:53.473Z,35.72
2017-08-04T00:20:53.462Z,35.62
2017-08-04T00:21:53.456Z,35.43
2017-08-04T00:22:53.455Z,34.95
2017-08-04T00:23:53.455Z,34.67
2017-08-04T00:24:53.449Z,34.48
2017-08-04T00:25:53.440Z,34.38
2017-08-04T00:26:53.429Z,33.81
2017-08-04T00:27:53.429Z,33.71
2017-08-04T00:28:53.421Z,33.33
2017-08-04T00:29:53.416Z,32.86
2017-08-04T00:30:53.412Z,32.95
2017-08-04T00:31:53.398Z,32.76
2017-08-04T00:32:53.400Z,32.66
2017-08-04T00:33:53.396Z,32.66
2017-08-04T00:34:53.390Z,32.28
2017-08-04T00:35:53.375Z,32.47
2017-08-04T00:36:53.374Z,32.1
2017-08-04T00:37:53.369Z,32.1
2017-08-04T00:38:53.359Z,32.1
2017-08-04T00:39:53.359Z,32.39
2017-08-04T00:40:53.348Z,32.1
2017-08-04T00:41:53.352Z,32.39
2017-08-04T00:42:53.343Z,32.95
2017-08-04T00:43:53.336Z,33.04
2017-08-04T00:44:53.329Z,32.86
2017-08-04T00:45:53.326Z,32.95
2017-08-04T00:46:53.011Z,32.95
2017-08-04T00:47:53.319Z,32.95
2017-08-04T00:48:53.008Z,33.15
2017-08-04T00:49:53.304Z,33.44
2017-08-04T00:50:53.303Z,34.01
2017-08-04T00:51:53.287Z,34.49
2017-08-04T00:52:53.280Z,34.78
2017-08-04T00:53:53.277Z,35.55
2017-08-04T00:54:53.278Z,35.83
2017-08-04T00:55:53.271Z,36.31
2017-08-04T00:56:53.286Z,36.88
2017-08-04T00:57:53.259Z,37.17
2017-08-04T00:58:53.253Z,37.36
2017-08-04T00:59:53.250Z,37.46
2017-08-04T01:00:53.233Z,37.26
2017-08-04T01:01:53.229Z,38.32
2017-08-04T01:02:53.222Z,38.51
2017-08-04T01:03:52.919Z,38.58
2017-08-04T01:04:53.222Z,38.58
2017-08-04T01:05:53.206Z,38.58
2017-08-04T01:06:53.208Z,38.79
2017-08-04T01:07:53.198Z,38.98
2017-08-04T01:08:53.197Z,39.27
2017-08-04T01:09:53.192Z,39.65
2017-08-04T01:10:53.182Z,39.73
2017-08-04T01:11:53.172Z,40.23
2017-08-04T01:12:53.169Z,40.32
2017-08-04T01:13:53.166Z,40.7
2017-08-04T01:14:53.165Z,40.8
2017-08-04T01:15:53.154Z,40.89
2017-08-04T01:16:53.151Z,41.28
2017-08-04T01:17:53.136Z,41.75
2017-08-04T01:18:53.131Z,41.93
2017-08-04T01:19:53.132Z,42.02
2017-08-04T01:20:53.131Z,42.11
2017-08-04T01:21:53.118Z,42.11
2017-08-04T01:22:53.115Z,42.04
2017-08-04T01:23:53.106Z,42.14
2017-08-04T01:24:53.098Z,42.43
2017-08-04T01:25:52.790Z,42.81
2017-08-04T01:26:53.088Z,42.61
2017-08-04T01:27:53.079Z,42.81
2017-08-04T01:28:53.078Z,43.19
2017-08-04T01:29:53.075Z,43.66
2017-08-04T01:30:53.070Z,43.86
2017-08-04T01:31:53.056Z,44.24
2017-08-04T01:32:53.047Z,44.43
2017-08-04T01:33:53.052Z,45.01
2017-08-04T01:34:53.045Z,45.39
2017-08-04T01:35:53.038Z,45.58
2017-08-04T01:36:53.022Z,45.87
2017-08-04T01:37:53.025Z,46.06
2017-08-04T01:38:53.017Z,46.44
2017-08-04T01:39:53.025Z,47.2
2017-08-04T01:40:52.999Z,47.39
2017-08-04T01:41:53.001Z,47.49
2017-08-04T01:42:52.996Z,48.25
2017-08-04T01:43:52.992Z,48.54
2017-08-04T01:44:52.986Z,48.93
2017-08-04T01:46:11.875Z,49.78
2017-08-04T01:46:52.973Z,50.07
2017-08-04T01:47:52.959Z,50.93
2017-08-04T01:48:52.956Z,51.41
2017-08-04T01:49:52.948Z,51.79
2017-08-04T01:50:52.942Z,52.17
2017-08-04T01:51:52.935Z,52.65
2017-08-04T01:52:52.930Z,53.22
2017-08-04T01:53:52.931Z,53.41
2017-08-04T01:54:52.924Z,54.18
2017-08-04T01:55:52.911Z,54.47
2017-08-04T01:56:52.902Z,55.13
2017-08-04T01:57:52.901Z,55.32
2017-08-04T01:58:52.895Z,55.99
2017-08-04T01:59:52.887Z,56.18
2017-08-04T02:00:52.887Z,56.57
2017-08-04T02:01:52.883Z,57.04
2017-08-04T02:02:52.569Z,57.24
2017-08-04T02:03:52.562Z,57.71
2017-08-04T02:04:52.880Z,58.38
2017-08-04T02:05:52.849Z,58.32
2017-08-04T02:06:52.851Z,59.08
2017-08-04T02:07:52.845Z,59.47
2017-08-04T02:08:52.841Z,60.61
2017-08-04T02:09:52.838Z,60.9
2017-08-04T02:10:52.836Z,62.14
2017-08-04T02:11:52.819Z,62.9
2017-08-04T02:12:52.816Z,63.29
2017-08-04T02:13:52.809Z,64.34
2017-08-04T02:14:52.804Z,65.01
2017-08-04T02:15:52.794Z,65.68
2017-08-04T02:16:52.787Z,66.35
2017-08-04T02:17:52.783Z,66.63
2017-08-04T02:18:52.772Z,67.49
2017-08-04T02:19:52.770Z,67.88
2017-08-04T02:20:52.769Z,68.84
2017-08-04T02:21:52.765Z,69.6
2017-08-04T02:22:52.447Z,69.79
2017-08-04T02:23:52.753Z,70.65
2017-08-04T02:24:52.741Z,71.42
2017-08-04T02:25:52.743Z,71.99
2017-08-04T02:26:52.735Z,72.66
2017-08-04T02:27:52.717Z,73.23
2017-08-04T02:28:52.725Z,73.9
2017-08-04T02:29:52.714Z,74.09
2017-08-04T02:30:52.700Z,75.24
2017-08-04T02:31:52.695Z,75.05
2017-08-04T02:32:52.397Z,76.39
2017-08-04T02:33:52.687Z,76.48
2017-08-04T02:34:52.686Z,77.06
2017-08-04T02:35:52.677Z,77.3
2017-08-04T02:36:52.674Z,77.34
2017-08-04T02:37:52.668Z,78.11
2017-08-04T02:38:52.663Z,78.78
2017-08-04T02:39:52.655Z,79.12
2017-08-04T02:40:52.645Z,79.31
2017-08-04T02:41:52.636Z,79.31
2017-08-04T02:42:52.634Z,79.79
2017-08-04T02:43:52.635Z,79.69
2017-08-04T02:44:52.629Z,79.79
2017-08-04T02:45:52.616Z,79.88
2017-08-04T02:46:52.610Z,80.65
2017-08-04T02:47:52.608Z,80.55
2017-08-04T02:48:52.605Z,80.93
2017-08-04T02:49:52.592Z,81.03
2017-08-04T02:50:52.593Z,80.8
2017-08-04T02:51:52.588Z,80.9
2017-08-04T02:52:52.581Z,80.61
2017-08-04T02:53:52.571Z,80.8
2017-08-04T02:54:52.567Z,80.7
2017-08-04T02:55:52.556Z,80.61
2017-08-04T02:56:52.551Z,80.99
2017-08-04T02:57:52.557Z,80.61
2017-08-04T02:58:52.548Z,80.51
2017-08-04T02:59:52.541Z,80.8
2017-08-04T03:00:52.527Z,80.8
2017-08-04T03:01:52.526Z,80.61
2017-08-04T03:02:52.229Z,80.55
2017-08-04T03:03:52.517Z,80.65
2017-08-04T03:04:52.510Z,81.03
2017-08-04T03:05:52.499Z,80.93
2017-08-04T03:06:52.498Z,81.22
2017-08-04T03:07:52.493Z,81.7
2017-08-04T03:08:52.480Z,82.18
2017-08-04T03:09:52.480Z,81.99
2017-08-04T03:10:52.472Z,82.46
2017-08-04T03:11:52.460Z,82.94
2017-08-04T03:12:52.154Z,83.23
2017-08-04T03:13:52.451Z,83.99
2017-08-04T03:14:52.441Z,84.28
2017-08-04T03:15:52.438Z,84.56
2017-08-04T03:16:52.433Z,84.38
2017-08-04T03:17:52.430Z,85.05
2017-08-04T03:18:52.427Z,84.76
2017-08-04T03:19:52.418Z,84.95
2017-08-04T03:20:52.406Z,85.42
2017-08-04T03:21:52.396Z,85.42
2017-08-04T03:22:52.399Z,85.48
2017-08-04T03:23:52.382Z,85.29
2017-08-04T03:24:52.384Z,85.48
2017-08-04T03:25:52.375Z,85.58
2017-08-04T03:26:52.372Z,85.19
2017-08-04T03:27:52.361Z,85.38
2017-08-04T03:28:52.359Z,85.1
2017-08-04T03:29:52.356Z,84.81
2017-08-04T03:30:52.354Z,84.91
2017-08-04T03:31:52.337Z,84.72
2017-08-04T03:32:52.327Z,84.91
2017-08-04T03:33:52.321Z,84.72
2017-08-04T03:34:52.313Z,84.91
2017-08-04T03:35:52.309Z,84.33
2017-08-04T03:36:52.319Z,84.23
2017-08-04T03:37:52.290Z,84.72
2017-08-04T03:38:52.292Z,83.95
2017-08-04T03:39:52.282Z,84.14
2017-08-04T03:40:52.274Z,84.14
2017-08-04T03:41:52.272Z,83.95
2017-08-04T03:42:52.272Z,84.05
2017-08-04T03:43:52.257Z,83.86
2017-08-04T03:44:52.247Z,83.95
2017-08-04T03:45:52.243Z,83.9
2017-08-04T03:46:52.241Z,84.76
2017-08-04T03:47:52.228Z,84.28
2017-08-04T03:48:52.230Z,84.28
2017-08-04T03:49:52.223Z,85.05
2017-08-04T03:50:51.907Z,84.76
2017-08-04T03:51:52.201Z,84.76
2017-08-04T03:52:52.200Z,84.66
2017-08-04T03:53:52.196Z,84.76
2017-08-04T03:54:52.193Z,84.66
2017-08-04T03:55:52.176Z,85.05
2017-08-04T03:56:52.172Z,84.85
2017-08-04T03:57:52.169Z,84.85
2017-08-04T03:58:52.160Z,84.72
2017-08-04T03:59:52.157Z,84.91
2017-08-04T04:00:52.152Z,84.81
2017-08-04T04:01:52.142Z,84.81
2017-08-04T04:02:52.143Z,84.52
2017-08-04T04:03:52.159Z,84.62
2017-08-04T04:04:52.130Z,83.86
2017-08-04T04:05:52.124Z,84.05
2017-08-04T04:06:52.109Z,83.67
2017-08-04T04:07:52.103Z,83.76
2017-08-04T04:08:52.106Z,83.18
2017-08-04T04:09:52.092Z,82.61
2017-08-04T04:10:52.093Z,82.14
2017-08-04T04:11:52.085Z,82.14
2017-08-04T04:12:52.080Z,81.85
2017-08-04T04:13:52.069Z,80.61
2017-08-04T04:14:52.069Z,80.13
2017-08-04T04:15:52.056Z,80.61
2017-08-04T04:16:52.052Z,80.04
2017-08-04T04:17:52.048Z,80.13
2017-08-04T04:18:52.045Z,79.65
2017-08-04T04:19:52.032Z,79.36
2017-08-04T04:20:52.033Z,79.36
2017-08-04T04:21:52.024Z,78.89
2017-08-04T04:22:52.014Z,79.08
2017-08-04T04:23:52.004Z,79.27
2017-08-04T04:24:51.994Z,78.79
2017-08-04T04:25:51.997Z,78.6
2017-08-04T04:26:51.989Z,79.08
2017-08-04T04:27:51.983Z,78.41
2017-08-04T04:28:51.968Z,78.31
2017-08-04T04:29:51.962Z,77.94
2017-08-04T04:30:51.656Z,77.74
2017-08-04T04:31:51.655Z,77.55
2017-08-04T04:32:51.946Z,76.98
2017-08-04T04:33:51.641Z,77.17
2017-08-04T04:34:51.931Z,77.08
2017-08-04T04:35:51.922Z,76.98
2017-08-04T04:36:51.625Z,77.08
2017-08-04T04:37:51.923Z,76.79
2017-08-04T04:38:51.910Z,76.69
2017-08-04T04:39:51.901Z,76.21
2017-08-04T04:40:51.902Z,75.98
2017-08-04T04:41:51.886Z,75.51
2017-08-04T04:42:51.889Z,75.6
2017-08-04T04:43:51.879Z,75.13
2017-08-04T04:44:51.867Z,75.13
2017-08-04T04:45:51.861Z,74.84
2017-08-04T04:46:51.850Z,74.46
2017-08-04T04:47:51.850Z,74.46
2017-08-04T04:48:51.845Z,73.88
2017-08-04T04:49:51.840Z,73.69
2017-08-04T04:50:51.832Z,73.32
2017-08-04T04:51:51.822Z,73.12
2017-08-04T04:52:51.813Z,73.12
2017-08-04T04:53:51.802Z,72.26
2017-08-04T04:54:51.799Z,71.98
2017-08-04T04:55:51.790Z,71.12
2017-08-04T04:56:51.782Z,70.83
2017-08-04T04:57:51.777Z,70.67
2017-08-04T04:58:51.779Z,70.39
2017-08-04T04:59:51.774Z,70.39
2017-08-04T05:00:51.761Z,69.62
2017-08-04T05:01:51.760Z,68.96
2017-08-04T05:02:51.745Z,68.67
2017-08-04T05:03:51.741Z,68.9
2017-08-04T05:04:51.731Z,68.51
2017-08-04T05:05:51.731Z,68.61
2017-08-04T05:06:51.723Z,68.51
2017-08-04T05:07:51.720Z,68.99
2017-08-04T05:08:51.707Z,69.43
2017-08-04T05:09:51.698Z,68.67
2017-08-04T05:10:51.693Z,68.57
2017-08-04T05:11:51.690Z,68.57
2017-08-04T05:12:51.693Z,67.33
2017-08-04T05:13:51.668Z,67.36
2017-08-04T05:14:51.661Z,67.65
2017-08-04T05:15:51.660Z,67.46
2017-08-04T05:16:51.655Z,68.61
2017-08-04T05:17:51.646Z,68.1
2017-08-04T05:18:51.635Z,67.91
2017-08-04T05:19:51.629Z,66.47
2017-08-04T05:20:51.627Z,66.6
2017-08-04T05:21:51.621Z,65.87
2017-08-04T05:22:51.613Z,66.44
2017-08-04T05:23:51.613Z,66.63
2017-08-04T05:24:51.600Z,66.83
2017-08-04T05:25:51.594Z,66.54
2017-08-04T05:26:51.591Z,66.16
2017-08-04T05:27:51.580Z,66.25
2017-08-04T05:28:51.582Z,67.4
2017-08-04T05:29:51.570Z,67.49
2017-08-04T05:30:51.562Z,68.26
2017-08-04T05:31:51.546Z,68.51
2017-08-04T05:32:51.541Z,68.23
2017-08-04T05:33:51.237Z,67.46
2017-08-04T05:34:51.537Z,67.21
2017-08-04T05:35:51.524Z,67.59
2017-08-04T05:36:51.517Z,67.78
2017-08-04T05:37:51.509Z,68.35
2017-08-04T05:38:51.510Z,68.55
2017-08-04T05:39:51.498Z,68.45
2017-08-04T05:40:51.498Z,67.97
2017-08-04T05:41:51.483Z,68.55
2017-08-04T05:42:51.490Z,69.31
2017-08-04T05:43:51.475Z,69.02
2017-08-04T05:44:51.477Z,69.18
2017-08-04T05:45:51.462Z,69.5
2017-08-04T05:46:51.455Z,69.37
2017-08-04T05:47:51.455Z,69.27
2017-08-04T05:48:51.440Z,69.09
2017-08-04T05:49:51.442Z,68.9
2017-08-04T05:50:51.127Z,70.07
2017-08-04T05:51:51.427Z,68.99
2017-08-04T05:52:51.422Z,68.16
2017-08-04T05:53:51.410Z,68.01
2017-08-04T05:54:51.414Z,68.49
2017-08-04T05:55:51.404Z,68.2
2017-08-04T05:56:51.397Z,68.1
2017-08-04T05:57:51.388Z,69.38
2017-08-04T05:58:51.383Z,70.4
2017-08-04T05:59:51.374Z,68.58
2017-08-04T06:00:51.070Z,68.71
2017-08-04T06:01:51.372Z,67.41
2017-08-04T06:02:51.364Z,67.91
2017-08-04T06:03:51.356Z,67.63
2017-08-04T06:04:51.342Z,68.62
2017-08-04T06:05:51.346Z,69.29
2017-08-04T06:06:51.341Z,69.96
2017-08-04T06:07:51.335Z,69.48
2017-08-04T06:08:51.327Z,70
2017-08-04T06:09:51.325Z,71.57
2017-08-04T06:10:51.312Z,73.49
2017-08-04T06:11:51.311Z,73.93
2017-08-04T06:12:51.317Z,74.69
2017-08-04T06:13:51.295Z,74.6
2017-08-04T06:14:51.299Z,76.27
2017-08-04T06:15:51.290Z,77.86
2017-08-04T06:16:51.290Z,80.22
2017-08-04T06:17:50.978Z,81.71
2017-08-04T06:18:51.283Z,82.78
2017-08-04T06:19:51.272Z,82.78
2017-08-04T06:20:51.265Z,82.68
2017-08-04T06:21:51.259Z,82.3
2017-08-04T06:22:51.253Z,82.34
2017-08-04T06:23:51.246Z,82.43
2017-08-04T06:24:51.253Z,82.53
2017-08-04T06:25:51.245Z,83.68
2017-08-04T06:26:51.235Z,84.22
2017-08-04T06:27:51.228Z,83.83
2017-08-04T06:28:51.231Z,83.3
2017-08-04T06:29:50.922Z,83.59
2017-08-04T06:30:51.215Z,83.53
2017-08-04T06:31:51.215Z,82.96
2017-08-04T06:32:51.204Z,83.25
2017-08-04T06:33:51.203Z,83.67
2017-08-04T06:34:51.200Z,84.72
2017-08-04T06:35:51.192Z,85.06
2017-08-04T06:36:51.191Z,85.01
2017-08-04T06:37:51.191Z,85.49
2017-08-04T06:38:51.188Z,85.78
2017-08-04T06:39:51.174Z,85.78
2017-08-04T06:40:51.181Z,85.78
2017-08-04T06:41:51.167Z,85.63
2017-08-04T06:42:51.165Z,86.11
2017-08-04T06:43:51.158Z,85.67
2017-08-04T06:44:51.153Z,86.54
2017-08-04T06:45:51.154Z,86.54
2017-08-04T06:46:51.154Z,87.54
2017-08-04T06:47:51.143Z,87.98
2017-08-04T06:48:51.147Z,88.65
2017-08-04T06:49:51.134Z,90.18
2017-08-04T06:50:51.132Z,90.52
2017-08-04T06:51:51.129Z,91.57
2017-08-04T06:52:51.130Z,92.2
2017-08-04T06:53:51.126Z,91.24
2017-08-04T06:54:51.118Z,91.96
2017-08-04T06:55:51.120Z,93.01
2017-08-04T06:56:51.115Z,93.78
2017-08-04T06:57:51.108Z,94.98
2017-08-04T06:58:51.097Z,94.93
2017-08-04T06:59:51.099Z,94.55
2017-08-04T07:00:51.097Z,94.5
2017-08-04T07:01:51.087Z,94.69
2017-08-04T07:02:51.084Z,94.89
2017-08-04T07:03:51.085Z,95.94
2017-08-04T07:04:51.081Z,96.13
2017-08-04T07:05:51.074Z,96.7
2017-08-04T07:06:51.067Z,97.18
2017-08-04T07:07:51.069Z,96.66
2017-08-04T07:08:51.066Z,95.17
2017-08-04T07:09:51.052Z,94.12
2017-08-04T07:10:51.054Z,93.49
2017-08-04T07:11:51.053Z,93.96
2017-08-04T07:12:51.048Z,96.17
2017-08-04T07:13:51.044Z,96.56
2017-08-04T07:14:51.042Z,97.91
2017-08-04T07:15:51.038Z,98.96
2017-08-04T07:16:51.036Z,99.68
2017-08-04T07:17:51.033Z,99.29
2017-08-04T07:18:51.019Z,99.99
2017-08-04T07:19:51.016Z,99.99
2017-08-04T07:20:50.714Z,99.73
2017-08-04T07:21:51.013Z,99.39
2017-08-04T07:22:51.006Z,99.97
2017-08-04T07:23:51.000Z,99.99
2017-08-04T07:24:51.009Z,99.99
2017-08-04T07:25:51.001Z,99.99
2017-08-04T07:26:51.000Z,99.99
2017-08-04T07:27:50.989Z,99.99
2017-08-04T07:28:50.984Z,99.99
2017-08-04T07:29:50.979Z,99.99
2017-08-04T07:30:50.984Z,99.99
2017-08-04T07:31:50.981Z,99.99
2017-08-04T07:32:50.969Z,99.99
2017-08-04T07:33:50.973Z,99.99
2017-08-04T07:34:50.962Z,99.99
2017-08-04T07:35:50.958Z,99.99
2017-08-04T07:36:50.957Z,99.99
2017-08-04T07:37:50.952Z,99.99
2017-08-04T07:38:50.950Z,99.99
2017-08-04T07:39:50.950Z,99.99
2017-08-04T07:40:50.942Z,99.99
2017-08-04T07:41:50.939Z,99.99
2017-08-04T07:42:50.943Z,99.99
2017-08-04T07:43:50.934Z,99.99
2017-08-04T07:44:50.930Z,99.99
2017-08-04T07:45:50.933Z,99.99
2017-08-04T07:46:50.925Z,99.99
2017-08-04T07:47:50.919Z,99.99
2017-08-04T07:48:50.920Z,99.99
2017-08-04T07:49:50.910Z,99.99
2017-08-04T07:50:50.915Z,99.99
2017-08-04T07:51:50.900Z,99.99
2017-08-04T07:52:50.907Z,99.99
2017-08-04T07:53:50.896Z,99.99
2017-08-04T07:54:50.589Z,99.99
2017-08-04T07:55:50.895Z,99.99
2017-08-04T07:56:50.894Z,99.99
2017-08-04T07:57:50.890Z,99.99
2017-08-04T07:58:50.581Z,99.99
2017-08-04T07:59:50.875Z,99.99
2017-08-04T08:00:50.574Z,99.99
2017-08-04T08:01:50.876Z,99.99
2017-08-04T08:02:50.867Z,99.99
2017-08-04T08:03:50.866Z,99.99
2017-08-04T08:04:50.863Z,99.99
2017-08-04T08:05:50.867Z,99.99
2017-08-04T08:06:50.855Z,99.99
2017-08-04T08:07:50.857Z,99.99
2017-08-04T08:08:50.843Z,99.99
2017-08-04T08:09:50.539Z,99.99
2017-08-04T08:10:50.837Z,99.99
2017-08-04T08:11:50.835Z,99.99
2017-08-04T08:12:50.841Z,99.99
2017-08-04T08:13:50.839Z,99.99
2017-08-04T08:14:50.528Z,99.99
2017-08-04T08:15:50.825Z,99.99
2017-08-04T08:16:50.833Z,99.99
2017-08-04T08:17:50.836Z,99.99
2017-08-04T08:18:50.829Z,99.99
2017-08-04T08:19:50.825Z,99.99
2017-08-04T08:20:50.816Z,99.99
2017-08-04T08:21:50.828Z,99.99
2017-08-04T08:22:50.817Z,99.99
2017-08-04T08:23:50.514Z,99.99
2017-08-04T08:24:50.506Z,99.99
2017-08-04T08:25:50.512Z,99.99
2017-08-04T08:26:50.805Z,99.99
2017-08-04T08:27:50.804Z,99.99
2017-08-04T08:28:50.502Z,99.99
2017-08-04T08:29:50.804Z,99.99
2017-08-04T08:30:51.009Z,99.99
2017-08-04T08:31:50.504Z,99.99
2017-08-04T08:32:50.510Z,99.99
2017-08-04T08:33:50.495Z,99.99
2017-08-04T08:34:50.799Z,99.99
2017-08-04T08:35:50.801Z,99.99
2017-08-04T08:36:50.807Z,99.99
2017-08-04T08:37:50.796Z,99.99
2017-08-04T08:38:50.810Z,99.99
2017-08-04T08:39:50.806Z,99.99
2017-08-04T08:40:50.805Z,99.99
2017-08-04T08:41:50.795Z,99.99
2017-08-04T08:42:50.794Z,99.99
2017-08-04T08:43:50.798Z,99.99
2017-08-04T08:44:50.785Z,99.99
2017-08-04T08:45:50.788Z,99.99
2017-08-04T08:46:50.779Z,99.99
2017-08-04T08:47:50.478Z,99.99
2017-08-04T08:48:50.788Z,99.99
2017-08-04T08:49:50.776Z,99.99
2017-08-04T08:50:50.775Z,99.99
2017-08-04T08:51:50.772Z,99.99
2017-08-04T08:52:50.777Z,99.99
2017-08-04T08:53:50.767Z,99.99
2017-08-04T08:54:50.770Z,99.99
2017-08-04T08:55:50.767Z,99.99
2017-08-04T08:56:50.764Z,99.99
2017-08-04T08:57:50.772Z,99.99
2017-08-04T08:58:50.464Z,99.99
2017-08-04T08:59:50.769Z,99.99
2017-08-04T09:00:50.764Z,99.99
2017-08-04T09:01:50.753Z,99.99
2017-08-04T09:02:50.757Z,99.99
2017-08-04T09:03:50.747Z,99.99
2017-08-04T09:04:50.759Z,99.99
2017-08-04T09:05:50.755Z,99.99
2017-08-04T09:06:50.747Z,99.99
2017-08-04T09:07:50.743Z,99.99
2017-08-04T09:08:50.435Z,99.99
2017-08-04T09:09:50.735Z,99.99
2017-08-04T09:10:50.740Z,99.99
2017-08-04T09:11:50.732Z,99.99
2017-08-04T09:12:50.735Z,99.99
2017-08-04T09:13:50.726Z,99.99
2017-08-04T09:14:50.723Z,99.99
2017-08-04T09:15:50.731Z,99.99
2017-08-04T09:16:50.721Z,99.99
2017-08-04T09:17:50.726Z,99.99
2017-08-04T09:18:50.933Z,99.99
2017-08-04T09:19:50.729Z,99.99
2017-08-04T09:20:50.730Z,99.99
2017-08-04T09:21:50.713Z,99.99
2017-08-04T09:22:50.717Z,99.99
2017-08-04T09:23:50.715Z,99.99
2017-08-04T09:24:50.706Z,99.99
2017-08-04T09:25:50.712Z,99.99
2017-08-04T09:26:50.703Z,99.99
2017-08-04T09:27:50.703Z,99.99
2017-08-04T09:28:50.700Z,99.99
2017-08-04T09:29:50.690Z,99.99
2017-08-04T09:30:50.690Z,99.99
2017-08-04T09:31:50.695Z,99.99
2017-08-04T09:32:50.683Z,99.99
2017-08-04T09:33:50.689Z,99.99
2017-08-04T09:34:50.676Z,99.99
2017-08-04T09:35:50.677Z,99.99
2017-08-04T09:36:50.669Z,99.99
2017-08-04T09:37:50.676Z,99.99
2017-08-04T09:38:50.668Z,99.99
2017-08-04T09:39:50.360Z,99.99
2017-08-04T09:40:50.668Z,99.99
2017-08-04T09:41:50.655Z,99.99
2017-08-04T09:42:50.657Z,99.99
2017-08-04T09:43:50.651Z,99.99
2017-08-04T09:44:50.654Z,99.99
2017-08-04T09:45:50.646Z,99.99
2017-08-04T09:46:50.650Z,99.99
2017-08-04T09:47:50.639Z,99.99
2017-08-04T09:48:50.635Z,99.99
2017-08-04T09:49:50.642Z,99.99
2017-08-04T09:50:50.633Z,99.99
2017-08-04T09:51:50.342Z,99.99
2017-08-04T09:52:50.324Z,99.99
2017-08-04T09:53:50.834Z,99.99
2017-08-04T09:54:50.626Z,99.99
2017-08-04T09:55:50.627Z,99.99
2017-08-04T09:56:50.616Z,99.99
2017-08-04T09:57:50.614Z,99.99
2017-08-04T09:58:50.618Z,99.99
2017-08-04T09:59:50.608Z,99.99
2017-08-04T10:00:50.608Z,99.99
2017-08-04T10:01:50.607Z,99.99
2017-08-04T10:02:50.605Z,99.99
2017-08-04T10:03:50.611Z,99.99
2017-08-04T10:04:50.808Z,99.99
2017-08-04T10:05:50.803Z,99.99
2017-08-04T10:06:50.601Z,99.99
2017-08-04T10:07:50.606Z,99.99
2017-08-04T10:08:50.297Z,99.99
2017-08-04T10:09:50.597Z,99.99
2017-08-04T10:10:50.592Z,99.99
2017-08-04T10:11:50.590Z,99.99
2017-08-04T10:12:50.586Z,99.99
2017-08-04T10:13:50.580Z,99.99
2017-08-04T10:14:50.578Z,99.99
2017-08-04T10:15:50.576Z,99.99
2017-08-04T10:16:50.583Z,99.99
2017-08-04T10:17:50.573Z,99.99
2017-08-04T10:18:50.582Z,99.99
2017-08-04T10:19:50.570Z,99.99
2017-08-04T10:20:50.574Z,99.99
2017-08-04T10:21:50.576Z,99.99
2017-08-04T10:22:50.572Z,99.99
2017-08-04T10:23:50.569Z,99.99
2017-08-04T10:24:50.565Z,99.99
2017-08-04T10:25:50.572Z,99.99
2017-08-04T10:26:50.559Z,99.99
2017-08-04T10:27:50.558Z,99.99
2017-08-04T10:28:50.561Z,99.99
2017-08-04T10:29:50.553Z,99.99
2017-08-04T10:30:50.551Z,99.99
2017-08-04T10:31:50.557Z,99.99
2017-08-04T10:32:50.561Z,99.99
2017-08-04T10:33:50.555Z,99.99
2017-08-04T10:34:50.550Z,99.99
2017-08-04T10:35:50.546Z,99.99
2017-08-04T10:36:50.546Z,99.99
2017-08-04T10:37:50.552Z,99.99
2017-08-04T10:38:50.534Z,99.99
2017-08-04T10:39:50.531Z,99.99
2017-08-04T10:40:50.754Z,99.99
2017-08-04T10:41:50.753Z,99.99
2017-08-04T10:42:50.527Z,99.99
2017-08-04T10:43:50.519Z,99.99
2017-08-04T10:44:50.528Z,99.99
2017-08-04T10:45:50.516Z,99.99
2017-08-04T10:46:50.511Z,99.99
2017-08-04T10:47:50.509Z,99.99
2017-08-04T10:48:50.518Z,99.99
2017-08-04T10:49:50.508Z,99.99
2017-08-04T10:50:50.506Z,99.99
2017-08-04T10:51:50.505Z,99.99
2017-08-04T10:52:50.500Z,99.99
2017-08-04T10:53:50.193Z,99.99
2017-08-04T10:54:50.503Z,99.99
2017-08-04T10:55:50.499Z,99.99
2017-08-04T10:56:50.495Z,99.99
2017-08-04T10:57:50.491Z,99.99
2017-08-04T10:58:50.486Z,99.99
2017-08-04T10:59:50.494Z,99.99
2017-08-04T11:00:50.500Z,99.99
2017-08-04T11:01:50.485Z,99.99
2017-08-04T11:02:50.485Z,99.99
2017-08-04T11:03:50.483Z,99.99
2017-08-04T11:04:50.480Z,99.99
2017-08-04T11:05:50.471Z,99.99
2017-08-04T11:06:50.481Z,99.99
2017-08-04T11:07:50.475Z,99.99
2017-08-04T11:08:50.475Z,99.99
2017-08-04T11:09:50.472Z,99.99
2017-08-04T11:10:50.458Z,99.99
2017-08-04T11:11:50.468Z,99.99
2017-08-04T11:12:50.458Z,99.99
2017-08-04T11:13:50.463Z,99.99
2017-08-04T11:14:50.459Z,99.99
2017-08-04T11:15:50.452Z,99.99
2017-08-04T11:16:50.458Z,99.99
2017-08-04T11:17:50.458Z,99.99
2017-08-04T11:18:50.454Z,99.99
2017-08-04T11:19:50.448Z,99.99
2017-08-04T11:20:50.457Z,99.99
2017-08-04T11:21:50.655Z,99.99
2017-08-04T11:22:50.438Z,99.99
2017-08-04T11:23:50.448Z,99.99
2017-08-04T11:24:50.436Z,99.99
2017-08-04T11:25:50.440Z,99.99
2017-08-04T11:26:50.443Z,99.99
2017-08-04T11:27:50.432Z,99.99
2017-08-04T11:28:50.435Z,99.99
2017-08-04T11:29:50.428Z,99.99
2017-08-04T11:30:50.424Z,99.99
2017-08-04T11:31:50.421Z,99.99
2017-08-04T11:32:50.423Z,99.99
2017-08-04T11:33:50.426Z,99.99
2017-08-04T11:34:50.426Z,99.99
2017-08-04T11:35:50.420Z,99.99
2017-08-04T11:36:50.414Z,99.99
2017-08-04T11:37:50.407Z,99.99
2017-08-04T11:42:00.226Z,99.99
2017-08-04T11:43:00.230Z,99.99
2017-08-04T11:44:00.232Z,99.99
2017-08-04T11:45:00.230Z,99.99
2017-08-04T11:46:00.120Z,99.99
2017-08-04T11:47:00.222Z,99.99
2017-08-04T11:48:00.209Z,99.99
2017-08-04T11:48:59.911Z,99.99
2017-08-04T11:50:00.215Z,99.99
2017-08-04T11:50:59.900Z,99.99
2017-08-04T11:51:59.903Z,99.99
2017-08-04T11:53:00.205Z,99.99
2017-08-04T11:54:00.203Z,99.99
2017-08-04T11:55:00.199Z,99.99
2017-08-04T11:56:00.198Z,99.99
2017-08-04T11:56:59.894Z,99.99
2017-08-04T11:58:00.188Z,99.99
2017-08-04T11:59:00.185Z,99.99
2017-08-04T12:00:00.178Z,99.99
2017-08-04T12:01:00.182Z,99.99
2017-08-04T12:02:00.173Z,99.99
2017-08-04T12:03:00.179Z,99.99
2017-08-04T12:04:00.174Z,99.99
2017-08-04T12:05:00.180Z,99.99
2017-08-04T12:06:00.170Z,99.99
2017-08-04T12:07:00.176Z,99.99
2017-08-04T12:07:59.860Z,99.99
2017-08-04T12:09:00.166Z,99.99
2017-08-04T12:09:59.861Z,99.99
2017-08-04T12:10:59.862Z,99.99
2017-08-04T12:12:00.160Z,99.99
2017-08-04T12:12:59.861Z,99.99
2017-08-04T12:14:00.160Z,99.99
2017-08-04T12:14:59.857Z,99.99
2017-08-04T12:16:00.159Z,99.99
2017-08-04T12:16:59.853Z,99.99
2017-08-04T12:18:00.161Z,99.99
2017-08-04T12:18:59.853Z,99.99
2017-08-04T12:19:59.850Z,99.99
2017-08-04T12:20:59.849Z,99.99
2017-08-04T12:21:59.847Z,99.99
2017-08-04T12:23:00.149Z,99.99
2017-08-04T12:24:00.147Z,99.99
2017-08-04T12:25:00.151Z,99.99
2017-08-04T12:25:59.835Z,99.99
2017-08-04T12:26:59.837Z,99.99
2017-08-04T12:27:59.836Z,99.99
2017-08-04T12:29:00.143Z,99.99
2017-08-04T12:29:59.836Z,99.99
2017-08-04T12:30:59.833Z,99.99
2017-08-04T12:31:59.841Z,99.99
2017-08-04T12:32:59.835Z,99.99
2017-08-04T12:33:59.836Z,99.99
2017-08-04T12:34:59.833Z,99.99
2017-08-04T12:35:59.831Z,99.99
2017-08-04T12:37:00.131Z,99.99
2017-08-04T12:38:00.136Z,99.99
2017-08-04T12:39:00.139Z,99.99
2017-08-04T12:40:00.130Z,99.99
2017-08-04T12:41:00.125Z,99.99
2017-08-04T12:42:00.129Z,99.99
2017-08-04T12:43:00.128Z,99.99
2017-08-04T12:44:00.127Z,99.99
2017-08-04T12:45:00.135Z,99.99
2017-08-04T12:46:00.124Z,99.99
2017-08-04T12:47:00.123Z,99.99
2017-08-04T12:48:00.115Z,99.99
2017-08-04T12:49:00.125Z,99.99
2017-08-04T12:50:00.121Z,99.99
2017-08-04T12:51:00.114Z,99.99
2017-08-04T12:51:59.818Z,99.99
2017-08-04T12:53:00.114Z,99.99
2017-08-04T12:54:00.129Z,99.99
2017-08-04T12:54:59.809Z,99.99
2017-08-04T12:56:00.120Z,99.99
2017-08-04T12:57:00.121Z,99.99
2017-08-04T12:58:00.110Z,99.99